Time;durP1;ratioP1;P1;durP2;ratioP2;P2;SDS_P1;SDS_P2;PMS_P1;PMS_P2;Temp;Humidity;BMP_temperature;BMP_pressure;BME280_temperature;BME280_humidity;BME280_pressure;Samples;Min_cycle;Max_cycle;Signal;HPM_P1;HPM_P2
2023/05/30 00:00:28;;;;;;;6.72;3.22;;;15.00;90.90;;;14.83;68.75;97467.97;5026995;28;20429;-37
2023/05/30 00:02:54;;;;;;;4.38;2.92;;;15.00;90.90;;;14.75;69.41;97450.75;5026439;28;20367;-38
2023/05/30 00:05:20;;;;;;;5.78;3.17;;;14.90;91.10;;;14.74;70.25;97468.47;5024185;28;20034;-38
2023/05/30 00:07:46;;;;;;;4.53;2.92;;;14.90;91.30;;;14.69;70.68;97473.16;5026985;28;20449;-37
2023/05/30 00:10:12;;;;;;;4.97;3.13;;;14.80;91.40;;;14.61;72.16;97476.22;5024095;28;20064;-38
2023/05/30 00:12:40;;;;;;;4.20;3.00;;;14.80;91.80;;;14.55;73.21;97476.50;5026026;28;20057;-38
2023/05/30 00:15:07;;;;;;;5.35;3.00;;;14.70;92.10;;;14.48;74.21;97481.28;5023750;28;20033;-38
2023/05/30 00:17:35;;;;;;;7.22;3.05;;;14.60;92.30;;;14.35;75.05;97466.06;5025198;28;20040;-37
2023/05/30 00:20:06;;;;;;;5.78;3.10;;;14.60;92.60;;;14.39;75.53;97478.22;5020933;28;20037;-38
2023/05/30 00:22:32;;;;;;;4.15;2.80;;;14.50;92.70;;;14.35;76.36;97487.28;5023558;28;20027;-37
2023/05/30 00:24:59;;;;;;;4.10;2.80;;;14.50;92.90;;;14.31;76.62;97483.94;5023882;28;20029;-38
2023/05/30 00:27:25;;;;;;;5.82;3.00;;;14.50;93.00;;;14.29;76.38;97494.63;5025442;28;20036;-38
2023/05/30 00:29:51;;;;;;;5.13;2.58;;;14.40;93.00;;;14.26;76.59;97491.25;5026161;28;20495;-38
2023/05/30 00:32:17;;;;;;;6.47;3.10;;;14.40;93.00;;;14.25;77.13;97485.09;5024997;28;20036;-37
2023/05/30 00:34:43;;;;;;;5.05;2.97;;;14.40;93.20;;;14.25;76.32;97498.38;5025549;28;20029;-38
2023/05/30 00:37:09;;;;;;;4.40;2.85;;;14.40;93.10;;;14.28;76.20;97498.22;5021598;28;20034;-37
2023/05/30 00:39:35;;;;;;;7.25;3.38;;;14.40;93.10;;;14.29;76.28;97496.41;5021676;28;20053;-38
2023/05/30 00:42:02;;;;;;;6.13;3.20;;;14.40;93.10;;;14.28;76.05;97492.91;5023421;28;20453;-37
2023/05/30 00:44:28;;;;;;;6.07;3.80;;;14.40;93.10;;;14.29;75.88;97496.41;5026245;28;20042;-37
2023/05/30 00:46:54;;;;;;;5.35;2.80;;;14.40;93.10;;;14.31;75.97;97491.88;5022885;28;20038;-37
2023/05/30 00:49:21;;;;;;;5.60;3.03;;;14.50;93.10;;;14.33;75.38;97485.56;5025059;28;20512;-38
2023/05/30 00:51:47;;;;;;;8.15;3.40;;;14.50;93.00;;;14.33;75.16;97480.25;5020545;28;20029;-38
2023/05/30 00:54:13;;;;;;;4.22;2.70;;;14.50;93.00;;;14.36;75.37;97489.03;5026408;28;20559;-37
2023/05/30 00:56:40;;;;;;;5.78;3.25;;;14.50;93.10;;;14.29;75.67;97485.81;5023282;28;20025;-37
2023/05/30 00:59:05;;;;;;;4.90;2.95;;;14.40;93.10;;;14.29;76.07;97484.00;5040259;28;20451;-37
2023/05/30 01:01:32;;;;;;;5.68;3.22;;;14.50;93.20;;;14.27;76.31;97485.88;5016297;28;20112;-37
2023/05/30 01:03:59;;;;;;;5.68;3.17;;;14.50;93.30;;;14.27;76.13;97487.69;5023802;28;20032;-38
2023/05/30 01:06:29;;;;;;;4.00;2.83;;;14.40;93.30;;;14.25;76.30;97487.75;5022198;28;20028;-38
2023/05/30 01:08:59;;;;;;;6.85;3.20;;;14.40;93.40;;;14.23;76.91;97491.41;5024224;28;20033;-37
2023/05/30 01:11:53;;;;;;;4.63;3.13;;;14.40;93.50;;;14.21;77.09;97494.16;5021994;28;20036;-38
2023/05/30 01:14:39;;;;;;;6.00;2.85;;;14.40;93.60;;;14.19;76.87;97490.69;5022955;28;20064;-38
2023/05/30 01:17:26;;;;;;;6.13;3.20;;;14.40;93.60;;;14.15;77.24;97488.28;5022658;28;20033;-38
2023/05/30 01:20:05;;;;;;;5.65;3.25;;;14.30;93.70;;;14.12;78.49;97489.28;5019198;28;20291;-38
2023/05/30 01:23:02;;;;;;;8.35;3.40;;;14.30;94.00;;;14.10;78.11;97478.78;5025063;28;20041;-37
2023/05/30 01:25:50;;;;;;;4.88;3.15;;;14.30;94.00;;;14.03;78.38;97469.41;5023471;28;20536;-39
2023/05/30 01:28:21;;;;;;;4.70;3.55;;;14.30;94.00;;;14.03;78.44;97471.19;5022765;28;20037;-37
2023/05/30 01:30:49;;;;;;;5.38;2.80;;;14.30;94.00;;;14.08;78.73;97483.28;5022248;28;20504;-38
2023/05/30 01:33:17;;;;;;;5.50;3.20;;;14.20;94.10;;;14.05;79.44;97472.84;5000280;28;20486;-37
2023/05/30 01:35:47;;;;;;;4.75;3.00;;;14.20;94.30;;;14.02;79.77;97472.16;5018115;28;20073;-38
2023/05/30 01:38:13;;;;;;;5.07;2.85;;;14.20;94.40;;;14.02;79.60;97472.16;5024212;28;20033;-37
2023/05/30 01:40:43;;;;;;;10.10;3.30;;;14.20;94.40;;;14.01;79.35;97468.59;5020104;28;20045;-38
2023/05/30 01:43:37;;;;;;;8.27;3.05;;;14.20;94.40;;;14.01;79.60;97475.72;5024815;28;20037;-38
2023/05/30 01:46:36;;;;;;;5.90;2.92;;;14.20;94.40;;;13.97;80.40;97468.84;5024240;28;20474;-37
2023/05/30 01:49:31;;;;;;;7.05;3.08;;;14.10;94.60;;;13.89;80.82;97475.41;5023581;28;20037;-38
2023/05/30 01:52:08;;;;;;;4.85;2.88;;;14.10;94.70;;;13.73;81.46;97451.44;5021974;28;20045;-38
2023/05/30 01:54:35;;;;;;;4.72;2.90;;;14.00;94.90;;;13.81;82.50;97463.44;5026328;28;20079;-37
2023/05/30 01:57:16;;;;;;;5.38;3.38;;;14.00;95.10;;;13.74;83.07;97468.19;5024435;28;20033;-37
2023/05/30 01:59:43;;;;;;;7.28;3.42;;;13.90;95.30;;;13.75;81.89;97473.41;5023607;28;20390;-37
2023/05/30 02:02:10;;;;;;;5.18;2.70;;;13.90;95.20;;;13.65;82.36;97461.53;5019009;28;20119;-37
2023/05/30 02:04:36;;;;;;;4.18;2.85;;;13.90;95.30;;;13.70;82.82;97472.78;5026396;28;20025;-37
2023/05/30 02:07:03;;;;;;;5.55;2.50;;;13.80;95.40;;;13.64;84.20;97474.84;5025757;28;20032;-38
2023/05/30 02:09:29;;;;;;;7.30;2.95;;;13.80;95.70;;;13.59;85.00;97471.59;5025882;28;20501;-38
2023/05/30 02:11:55;;;;;;;6.13;2.90;;;13.70;95.90;;;13.54;85.08;97472.66;5022793;28;20057;-37
2023/05/30 02:14:23;;;;;;;6.72;3.10;;;13.70;96.00;;;13.48;85.97;97470.28;5022171;28;20552;-38
2023/05/30 02:16:49;;;;;;;5.07;3.17;;;13.60;96.20;;;13.44;86.58;97471.38;5021984;28;20116;-38
2023/05/30 02:19:15;;;;;;;6.90;3.80;;;13.60;96.40;;;13.45;85.90;97475.72;5024813;28;20501;-39
2023/05/30 02:21:41;;;;;;;10.65;3.70;;;13.60;96.30;;;13.46;86.10;97463.34;5023465;28;20034;-38
2023/05/30 02:24:07;;;;;;;7.18;3.67;;;13.60;96.30;;;13.49;84.95;97471.16;5024822;28;20051;-37
2023/05/30 02:26:36;;;;;;;6.25;3.35;;;13.70;96.20;;;13.63;83.55;97473.16;5027455;28;20025;-38
2023/05/30 02:29:02;;;;;;;5.88;3.42;;;13.70;96.10;;;13.64;83.30;97469.53;5025201;28;20399;-38
2023/05/30 02:31:28;;;;;;;6.15;3.40;;;13.80;96.00;;;13.64;83.45;97465.13;5024315;28;20026;-38
2023/05/30 02:33:53;;;;;;;7.07;3.33;;;13.80;95.90;;;13.63;83.30;97471.34;5026391;28;21614;-38
2023/05/30 02:36:19;;;;;;;6.43;3.65;;;13.80;95.90;;;13.64;83.13;97477.50;5013122;28;20112;-38
2023/05/30 02:38:46;;;;;;;7.85;2.90;;;13.80;95.90;;;13.66;82.97;97491.56;5022884;28;20094;-37
2023/05/30 02:41:11;;;;;;;6.10;3.30;;;13.80;95.90;;;13.62;83.09;97490.84;5027162;28;20032;-37
2023/05/30 02:43:39;;;;;;;6.53;3.00;;;13.80;95.80;;;13.60;83.02;97473.28;5026615;28;20358;-38
2023/05/30 02:46:05;;;;;;;5.38;3.03;;;13.80;95.90;;;13.53;84.37;97478.88;5029366;28;20030;-37
2023/05/30 02:48:31;;;;;;;5.22;3.03;;;13.70;96.10;;;13.46;85.56;97481.88;5024974;28;20037;-38
2023/05/30 02:50:57;;;;;;;5.03;2.70;;;13.70;96.40;;;13.40;87.32;97484.84;5026111;28;20404;-38
2023/05/30 02:53:22;;;;;;;6.30;3.33;;;13.60;96.80;;;13.35;87.87;97488.56;5026991;28;20033;-37
2023/05/30 02:55:48;;;;;;;6.10;3.33;;;13.50;97.00;;;13.29;87.96;97482.66;5023872;28;20128;-38
2023/05/30 02:58:14;;;;;;;6.55;3.45;;;13.50;97.00;;;13.27;88.35;97479.22;5029370;28;20195;-38
2023/05/30 03:00:41;;;;;;;5.68;3.35;;;13.50;97.10;;;13.23;88.60;97481.16;5022964;28;20055;-38
2023/05/30 03:03:09;;;;;;;4.68;2.78;;;13.40;97.20;;;13.17;89.92;97484.94;5029770;28;20490;-38
2023/05/30 03:05:35;;;;;;;5.75;2.95;;;13.40;97.50;;;13.11;90.57;97487.00;5022451;28;20026;-38
2023/05/30 03:08:02;;;;;;;4.80;2.97;;;13.30;97.70;;;13.04;91.88;97485.56;5027999;28;20085;-37
2023/05/30 03:10:28;;;;;;;6.32;3.30;;;13.20;97.90;;;12.97;93.74;97491.16;5025674;28;20031;-38
2023/05/30 03:12:55;;;;;;;6.63;3.10;;;13.20;98.40;;;12.83;94.65;97484.75;5025308;28;20049;-37
2023/05/30 03:15:21;;;;;;;5.50;3.20;;;13.10;98.60;;;12.84;95.62;97486.47;5027914;28;20045;-37
2023/05/30 03:17:47;;;;;;;4.47;2.70;;;13.00;98.80;;;12.76;96.23;97489.47;5025558;28;20396;-37
2023/05/30 03:20:13;;;;;;;5.93;3.05;;;13.00;99.00;;;12.73;96.18;97485.16;5030963;28;20075;-37
2023/05/30 03:22:41;;;;;;;5.00;3.30;;;12.90;99.00;;;12.62;97.31;97494.50;5023095;28;20022;-38
2023/05/30 03:25:08;;;;;;;5.43;3.30;;;12.90;99.20;;;12.59;98.78;97492.84;5027820;28;20492;-38
2023/05/30 03:27:34;;;;;;;4.57;2.90;;;12.90;99.50;;;12.50;99.61;97483.50;5023422;28;20033;-38
2023/05/30 03:30:02;;;;;;;5.68;3.00;;;12.80;99.80;;;12.54;100.00;97489.53;5024077;28;20392;-38
2023/05/30 03:32:27;;;;;;;4.75;3.05;;;12.70;99.90;;;12.50;100.00;97487.94;5022699;28;20563;-39
2023/05/30 03:34:54;;;;;;;4.65;3.10;;;12.70;99.90;;;12.37;100.00;97469.97;5025253;28;20037;-37
2023/05/30 03:37:20;;;;;;;5.85;2.97;;;12.70;99.90;;;12.45;100.00;97490.78;5024837;28;20706;-37
2023/05/30 03:39:46;;;;;;;8.65;3.60;;;12.60;99.90;;;12.43;100.00;97495.28;5023091;28;20030;-37
2023/05/30 03:42:11;;;;;;;5.88;2.85;;;12.60;99.90;;;12.43;100.00;97497.06;5024279;28;20647;-38
2023/05/30 03:44:37;;;;;;;5.45;2.85;;;12.60;99.90;;;12.45;100.00;97505.81;5022091;28;20026;-38
2023/05/30 03:47:04;;;;;;;6.75;3.40;;;12.60;99.90;;;12.45;100.00;97498.72;5026759;28;20044;-38
2023/05/30 03:49:29;;;;;;;5.70;3.20;;;12.60;99.90;;;12.46;100.00;97495.16;5029090;28;20029;-38
2023/05/30 03:51:55;;;;;;;6.25;3.13;;;12.70;99.90;;;12.47;100.00;97502.19;5022382;28;20033;-38
2023/05/30 03:54:21;;;;;;;6.00;3.17;;;12.70;99.90;;;12.44;100.00;97504.09;5029451;28;20665;-37
2023/05/30 03:56:46;;;;;;;4.80;3.20;;;12.70;99.90;;;12.45;100.00;97513.72;5022904;28;20029;-38
2023/05/30 03:59:15;;;;;;;6.47;3.33;;;12.70;99.90;;;12.43;100.00;97505.00;5026199;28;20029;-38
2023/05/30 04:01:40;;;;;;;5.88;3.05;;;12.70;99.90;;;12.48;100.00;97511.81;5021490;28;20112;-37
2023/05/30 04:04:06;;;;;;;5.88;3.60;;;12.70;99.90;;;12.50;100.00;97514.41;5024231;28;20086;-40
2023/05/30 04:06:34;;;;;;;7.38;3.28;;;12.70;99.90;;;12.49;100.00;97515.31;5027909;28;20025;-38
2023/05/30 04:09:02;;;;;;;8.65;4.00;;;12.70;99.90;;;12.49;100.00;97512.66;5024829;28;20340;-37
2023/05/30 04:11:28;;;;;;;6.28;3.60;;;12.70;99.90;;;12.41;100.00;97500.63;5025398;28;20524;-38
2023/05/30 04:13:54;;;;;;;8.32;3.80;;;12.80;99.90;;;12.53;100.00;97519.56;5023919;28;20295;-38
2023/05/30 04:16:19;;;;;;;6.68;3.45;;;12.80;99.90;;;12.55;100.00;97520.38;5027908;28;20029;-37
2023/05/30 04:18:47;;;;;;;7.55;3.88;;;12.80;99.90;;;12.52;100.00;97529.28;5023872;28;20041;-37
2023/05/30 04:21:14;;;;;;;6.65;3.60;;;12.80;99.90;;;12.55;100.00;97529.16;5027642;28;20030;-38
2023/05/30 04:23:40;;;;;;;7.97;3.85;;;12.80;99.90;;;12.58;100.00;97528.19;5023784;28;20029;-38
2023/05/30 04:26:08;;;;;;;8.07;3.45;;;12.80;99.90;;;12.64;100.00;97530.53;5028559;28;20179;-37
2023/05/30 04:28:36;;;;;;;7.53;3.65;;;12.90;99.90;;;12.67;100.00;97526.88;5026919;28;20111;-38
2023/05/30 04:31:05;;;;;;;7.70;3.80;;;12.90;99.90;;;12.69;100.00;97525.06;5025728;28;20034;-38
2023/05/30 04:33:34;;;;;;;6.57;3.60;;;12.90;99.90;;;12.71;100.00;97529.34;5027391;28;20025;-38
2023/05/30 04:36:02;;;;;;;5.32;3.58;;;13.00;99.90;;;12.75;100.00;97528.28;5023311;28;20053;-39
2023/05/30 04:38:28;;;;;;;7.68;4.13;;;13.00;99.90;;;12.78;100.00;97527.31;5025365;28;20064;-38
2023/05/30 04:40:54;;;;;;;7.43;3.75;;;13.00;99.90;;;12.72;100.00;97520.50;5025387;28;21377;-38
2023/05/30 04:43:20;;;;;;;7.35;3.67;;;13.10;99.90;;;12.85;100.00;97544.63;5027208;28;20459;-38
2023/05/30 04:45:49;;;;;;;6.45;3.67;;;13.10;99.90;;;12.84;100.00;97539.41;5022536;28;20272;-37
2023/05/30 04:48:15;;;;;;;6.10;3.45;;;13.10;99.90;;;12.95;100.00;97547.72;5027204;28;20037;-37
2023/05/30 04:50:46;;;;;;;5.63;3.53;;;13.20;99.90;;;13.01;100.00;97544.81;5022102;28;20060;-37
2023/05/30 04:53:15;;;;;;;6.28;3.38;;;13.20;99.90;;;13.07;100.00;97544.53;5026857;28;20163;-38
2023/05/30 04:55:44;;;;;;;5.47;3.53;;;13.30;99.90;;;13.15;100.00;97549.47;5022185;28;20398;-38
2023/05/30 04:58:13;;;;;;;8.27;3.80;;;13.30;99.90;;;13.22;100.00;97558.88;5029879;28;20048;-37
2023/05/30 05:00:40;;;;;;;9.48;4.00;;;13.40;99.90;;;13.29;100.00;97559.47;5021596;28;20337;-38
2023/05/30 05:03:06;;;;;;;6.18;3.72;;;13.50;99.90;;;13.39;100.00;97552.84;5026891;28;20359;-37
2023/05/30 05:05:33;;;;;;;10.30;4.25;;;13.60;99.90;;;13.46;100.00;97564.88;5020750;28;20037;-38
2023/05/30 05:07:58;;;;;;;7.68;3.90;;;13.60;99.90;;;13.49;100.00;97566.53;5024237;28;20057;-38
2023/05/30 05:10:24;;;;;;;5.18;3.70;;;13.70;99.90;;;13.59;100.00;97569.63;5024319;28;20512;-37
2023/05/30 05:12:50;;;;;;;7.60;4.38;;;13.80;99.90;;;13.64;100.00;97571.13;5021531;28;20022;-37
2023/05/30 05:15:16;;;;;;;6.35;3.97;;;13.80;99.90;;;13.68;100.00;97574.50;5023472;28;20030;-38
2023/05/30 05:17:42;;;;;;;9.73;3.72;;;13.90;99.90;;;13.74;100.00;97575.03;5019852;28;20473;-38
2023/05/30 05:20:08;;;;;;;6.35;3.60;;;13.90;99.90;;;13.82;100.00;97574.72;5024789;28;20033;-38
2023/05/30 05:22:35;;;;;;;7.70;3.30;;;14.00;99.90;;;13.94;100.00;97575.91;5024007;28;20022;-37
2023/05/30 05:25:01;;;;;;;6.93;3.55;;;14.10;99.90;;;14.09;100.00;97579.63;5024056;28;20029;-37
2023/05/30 05:27:28;;;;;;;4.45;3.42;;;14.20;99.90;;;14.21;100.00;97576.38;5023073;28;20025;-38
2023/05/30 05:29:53;;;;;;;6.90;3.38;;;14.40;99.90;;;14.28;100.00;97572.50;5022696;28;20033;-37
2023/05/30 05:32:19;;;;;;;8.98;3.78;;;14.50;99.90;;;14.41;99.42;97570.09;5025225;28;20035;-38
2023/05/30 05:34:45;;;;;;;10.38;3.83;;;14.60;99.90;;;14.57;98.15;97578.16;5022953;28;20028;-38
2023/05/30 05:37:11;;;;;;;6.57;3.67;;;14.70;99.90;;;14.69;96.91;97580.19;5024159;28;20037;-38
2023/05/30 05:39:36;;;;;;;9.13;3.72;;;14.80;99.90;;;14.83;95.04;97582.16;5022801;28;20036;-38
2023/05/30 05:42:02;;;;;;;7.40;4.18;;;14.90;99.90;;;14.94;93.31;97589.56;5023710;28;20032;-38
2023/05/30 05:44:29;;;;;;;8.57;3.63;;;15.00;99.90;;;14.99;93.07;97587.53;5024550;28;20037;-38
2023/05/30 05:46:55;;;;;;;8.02;3.85;;;15.10;99.90;;;15.11;92.71;97599.34;5023226;28;20029;-38
2023/05/30 05:49:21;;;;;;;7.95;3.50;;;15.20;99.90;;;15.12;93.08;97589.56;5026906;28;20544;-38
2023/05/30 05:51:47;;;;;;;8.50;3.30;;;15.30;99.90;;;15.26;92.37;97595.00;5019993;28;20120;-37
2023/05/30 05:54:13;;;;;;;9.82;3.83;;;15.30;99.90;;;15.28;92.65;97593.13;5028150;28;20572;-37
2023/05/30 05:56:38;;;;;;;7.50;3.88;;;15.40;99.90;;;15.30;91.06;97583.28;5024070;28;20043;-38
2023/05/30 05:59:04;;;;;;;5.95;3.83;;;15.40;99.90;;;15.39;91.23;97595.22;5017133;28;20665;-38
2023/05/30 06:01:30;;;;;;;9.55;3.58;;;15.50;99.90;;;15.44;90.10;97598.50;5027609;28;20029;-37
2023/05/30 06:03:55;;;;;;;7.30;3.60;;;15.50;99.90;;;15.46;90.33;97594.78;5028725;28;20050;-38
2023/05/30 06:06:21;;;;;;;7.57;3.67;;;15.60;99.90;;;15.59;91.18;97591.47;5031120;28;20017;-37
2023/05/30 06:08:47;;;;;;;6.88;3.45;;;15.70;99.90;;;15.69;91.07;97602.50;5022926;28;20033;-38
2023/05/30 06:11:13;;;;;;;4.30;3.10;;;15.80;99.90;;;15.79;89.41;97607.25;5027071;28;20028;-38
2023/05/30 06:13:39;;;;;;;6.97;3.78;;;15.90;99.90;;;15.90;90.92;97609.31;5027782;28;20083;-38
2023/05/30 06:16:05;;;;;;;7.18;3.70;;;16.00;99.90;;;16.05;90.29;97614.75;5029890;28;20523;-37
2023/05/30 06:18:31;;;;;;;5.13;3.10;;;16.10;99.90;;;16.17;88.22;97616.72;5026919;28;20037;-38
2023/05/30 06:20:57;;;;;;;6.88;4.00;;;16.20;99.90;;;16.29;86.96;97617.81;5025070;28;20389;-38
2023/05/30 06:23:22;;;;;;;5.38;3.35;;;16.40;99.90;;;16.45;87.16;97616.00;5029205;28;20033;-38
2023/05/30 06:25:48;;;;;;;7.35;3.70;;;16.50;99.90;;;16.50;85.73;97615.75;5025953;28;20032;-38
2023/05/30 06:28:14;;;;;;;7.35;3.25;;;16.60;99.90;;;16.65;82.60;97619.31;5025690;28;20489;-38
2023/05/30 06:30:40;;;;;;;7.47;3.15;;;16.70;99.90;;;16.83;80.86;97618.25;5025618;28;20847;-38
2023/05/30 06:33:05;;;;;;;6.93;3.25;;;16.90;99.90;;;17.08;80.44;97622.13;5025394;28;20405;-38
2023/05/30 06:35:31;;;;;;;5.85;3.22;;;17.10;99.60;;;17.29;79.57;97620.84;5027901;28;20032;-38
2023/05/30 06:37:57;;;;;;;5.00;3.22;;;17.30;99.30;;;17.39;78.15;97629.16;5024587;28;20025;-39
2023/05/30 06:40:22;;;;;;;7.15;3.15;;;17.50;98.80;;;17.53;78.14;97628.28;5026744;28;20390;-38
2023/05/30 06:42:48;;;;;;;6.32;3.20;;;17.60;98.90;;;17.66;78.43;97631.94;5023469;28;20040;-38
2023/05/30 06:45:14;;;;;;;5.13;3.05;;;17.70;98.90;;;17.69;73.12;97633.53;5029350;28;20018;-38
2023/05/30 06:47:40;;;;;;;8.23;3.33;;;17.70;97.70;;;17.77;70.52;97636.59;5024436;28;20054;-39
2023/05/30 06:50:08;;;;;;;6.10;3.40;;;17.80;97.40;;;17.84;68.16;97640.59;5028468;28;20029;-38
2023/05/30 06:52:33;;;;;;;8.25;3.38;;;17.90;96.60;;;17.92;67.18;97641.00;5028240;28;20023;-38
2023/05/30 06:54:59;;;;;;;10.07;3.50;;;18.00;96.60;;;17.93;65.58;97640.06;5026143;28;20029;-38
2023/05/30 06:57:25;;;;;;;5.57;3.22;;;18.10;95.40;;;17.96;64.17;97646.16;5028966;28;20025;-38
2023/05/30 06:59:51;;;;;;;5.85;3.20;;;18.10;95.10;;;18.00;64.19;97643.19;5022987;28;20155;-37
2023/05/30 07:02:17;;;;;;;6.95;3.30;;;18.10;95.10;;;17.75;63.31;97609.16;5027018;28;20195;-38
2023/05/30 07:04:42;;;;;;;8.80;2.92;;;18.10;94.70;;;18.01;63.05;97638.72;5026825;28;20033;-39
2023/05/30 07:07:09;;;;;;;8.32;3.17;;;18.10;94.80;;;18.03;62.06;97636.78;5027012;28;20449;-37
2023/05/30 07:09:34;;;;;;;9.55;3.55;;;18.10;94.80;;;18.05;63.23;97637.56;5026108;28;20034;-38
2023/05/30 07:12:00;;;;;;;4.63;2.85;;;18.10;94.50;;;18.16;64.71;97634.19;5024996;28;20367;-37
2023/05/30 07:14:26;;;;;;;6.82;2.80;;;18.20;95.20;;;18.29;63.43;97636.00;5022040;28;20038;-39
2023/05/30 07:16:52;;;;;;;7.93;2.85;;;18.30;94.80;;;18.31;59.89;97630.56;5022821;28;20430;-38
2023/05/30 07:19:18;;;;;;;5.30;3.15;;;18.30;93.80;;;18.43;61.18;97640.44;5030201;28;20307;-38
2023/05/30 07:21:43;;;;;;;6.05;3.15;;;18.40;94.10;;;18.24;59.69;97594.53;5025927;28;20032;-38
2023/05/30 07:24:09;;;;;;;7.68;2.97;;;18.50;93.70;;;18.53;59.68;97638.00;5028409;28;20041;-39
2023/05/30 07:26:35;;;;;;;5.38;2.78;;;18.60;93.80;;;18.63;60.00;97643.63;5024997;28;20018;-39
2023/05/30 07:29:02;;;;;;;7.15;2.75;;;18.60;93.70;;;18.64;60.65;97638.16;5027456;28;20520;-39
2023/05/30 07:31:28;;;;;;;4.53;2.70;;;18.70;94.00;;;18.71;59.63;97641.28;5026923;28;20052;-39
2023/05/30 07:33:53;;;;;;;5.93;2.80;;;18.70;93.60;;;18.77;59.65;97646.25;5023295;28;20991;-39
2023/05/30 07:36:19;;;;;;;9.20;3.50;;;18.80;93.70;;;18.79;57.96;97643.44;5025337;28;20028;-39
2023/05/30 07:38:45;;;;;;;5.65;3.40;;;18.90;93.20;;;18.91;55.85;97650.69;5027286;28;20493;-40
2023/05/30 07:41:11;;;;;;;8.05;3.13;;;18.90;92.70;;;18.87;56.75;97655.38;5027455;28;20028;-39
2023/05/30 07:43:36;;;;;;;5.18;3.33;;;18.90;92.50;;;18.74;56.27;97649.13;5024952;28;20025;-39
2023/05/30 07:46:02;;;;;;;11.13;3.22;;;18.80;91.90;;;18.79;57.40;97651.47;5026464;28;20029;-40
2023/05/30 07:48:28;;;;;;;6.00;3.08;;;18.80;92.60;;;18.74;57.97;97646.44;5025039;28;20064;-39
2023/05/30 07:50:53;;;;;;;5.47;3.08;;;18.80;92.50;;;18.79;62.89;97638.09;5026080;28;22052;-37
2023/05/30 07:53:19;;;;;;;7.20;3.15;;;18.80;94.10;;;18.75;55.49;97641.94;5027577;28;20043;-36
2023/05/30 07:55:46;;;;;;;6.10;2.83;;;18.90;92.10;;;18.75;57.27;97637.44;5022498;28;20036;-36
2023/05/30 07:58:11;;;;;;;7.80;3.40;;;18.80;92.30;;;18.75;55.44;97640.13;5029470;28;20033;-38
2023/05/30 08:00:37;;;;;;;6.13;3.22;;;18.90;92.00;;;18.69;57.30;97632.53;5022767;28;20346;-38
2023/05/30 08:03:03;;;;;;;6.85;3.33;;;18.80;92.20;;;18.83;57.81;97643.19;5029234;28;20040;-38
2023/05/30 08:05:29;;;;;;;5.32;3.20;;;18.90;92.40;;;18.88;56.11;97640.22;5027392;28;20096;-38
2023/05/30 08:07:54;;;;;;;5.28;2.90;;;18.90;92.20;;;18.98;56.85;97641.28;5023812;28;20060;-39
2023/05/30 08:10:20;;;;;;;5.43;3.45;;;19.00;92.40;;;19.07;56.57;97639.81;5025604;28;20039;-37
2023/05/30 08:12:46;;;;;;;8.75;3.10;;;19.10;92.50;;;19.27;56.31;97631.31;5025509;28;20398;-38
2023/05/30 08:15:12;;;;;;;5.65;3.17;;;19.30;92.20;;;19.29;54.57;97633.00;5026494;28;20384;-38
2023/05/30 08:17:40;;;;;;;7.70;3.20;;;19.30;91.50;;;19.10;55.09;97593.34;5025043;28;20021;-38
2023/05/30 08:20:12;;;;;;;6.00;3.00;;;19.40;91.60;;;19.47;54.45;97634.44;5027139;28;20083;-38
2023/05/30 08:22:38;;;;;;;7.80;3.45;;;19.50;91.50;;;19.45;50.88;97633.66;5024465;28;20029;-38
2023/05/30 08:25:04;;;;;;;4.88;2.78;;;19.50;90.40;;;19.49;53.99;97636.97;5026937;28;20550;-38
2023/05/30 08:27:31;;;;;;;5.15;2.90;;;19.50;91.10;;;19.57;54.21;97637.31;5022675;28;20024;-38
2023/05/30 08:29:57;;;;;;;6.72;3.58;;;19.50;91.30;;;19.58;53.38;97642.56;5024095;28;20112;-38
2023/05/30 08:32:23;;;;;;;6.10;3.10;;;19.60;91.20;;;19.58;52.84;97637.22;5026542;28;20473;-38
2023/05/30 08:34:48;;;;;;;4.57;2.95;;;19.60;90.70;;;19.66;51.90;97625.97;5023705;28;20045;-38
2023/05/30 08:37:14;;;;;;;5.95;3.33;;;19.70;90.60;;;19.71;53.19;97623.81;5024882;28;20025;-38
2023/05/30 08:39:40;;;;;;;6.97;3.17;;;19.80;90.90;;;19.72;52.87;97638.94;5022686;28;20059;-38
2023/05/30 08:42:06;;;;;;;8.98;3.97;;;19.90;90.70;;;19.73;51.54;97631.75;5023845;28;20551;-38
2023/05/30 08:44:32;;;;;;;6.85;3.20;;;19.90;90.00;;;19.88;52.10;97635.19;5025518;28;20321;-38
2023/05/30 08:46:59;;;;;;;7.60;3.40;;;20.00;90.30;;;19.97;53.54;97630.03;5024307;28;20527;-38
2023/05/30 08:49:27;;;;;;;8.52;3.15;;;20.00;91.00;;;20.04;51.71;97641.16;5025565;28;20043;-38
2023/05/30 08:51:54;;;;;;;6.20;3.22;;;20.10;90.30;;;20.14;51.30;97638.69;5012748;28;20116;-38
2023/05/30 08:54:30;;;;;;;6.80;3.08;;;20.20;90.60;;;20.18;48.68;97626.78;5023474;28;20540;-38
2023/05/30 08:57:05;;;;;;;7.38;3.50;;;20.30;87.40;;;20.12;51.02;97633.44;5024005;28;20085;-38
2023/05/30 08:59:31;;;;;;;6.07;3.58;;;20.20;89.70;;;19.71;50.07;97623.81;5025876;28;20311;-38
2023/05/30 09:01:58;;;;;;;7.78;3.15;;;20.00;87.20;;;19.59;51.27;97625.53;5022128;28;20053;-39
2023/05/30 09:04:25;;;;;;;7.30;3.38;;;19.90;89.40;;;19.68;52.55;97628.53;5023702;28;20427;-38
2023/05/30 09:06:54;;;;;;;5.57;2.72;;;19.80;90.50;;;19.83;51.61;97623.00;5022979;28;20047;-39
2023/05/30 09:09:21;;;;;;;4.03;3.00;;;19.90;89.80;;;19.82;51.18;97623.09;5025304;28;20060;-38
2023/05/30 09:11:47;;;;;;;7.03;3.33;;;19.90;89.30;;;19.74;50.84;97614.75;5023620;28;20037;-38
2023/05/30 09:14:13;;;;;;;6.70;3.08;;;19.90;88.50;;;19.87;50.17;97620.97;5023920;28;20462;-38
2023/05/30 09:16:39;;;;;;;5.78;2.88;;;19.90;88.00;;;19.93;49.89;97625.84;5026598;28;20054;-38
2023/05/30 09:19:06;;;;;;;5.85;3.17;;;20.00;88.20;;;20.02;50.67;97629.69;5024889;28;20025;-38
2023/05/30 09:21:32;;;;;;;9.10;3.50;;;20.10;89.00;;;20.04;49.02;97619.72;5026561;28;20132;-38
2023/05/30 09:24:05;;;;;;;9.73;3.30;;;20.20;87.10;;;20.07;50.26;97626.72;5020597;28;20405;-38
2023/05/30 09:26:34;;;;;;;12.80;3.30;;;20.20;88.20;;;20.19;50.70;97634.69;5027494;28;20190;-38
2023/05/30 09:29:10;;;;;;;6.82;3.30;;;20.20;88.80;;;20.24;48.14;97630.81;5022597;28;20026;-38
2023/05/30 09:31:37;;;;;;;6.45;3.60;;;20.30;86.30;;;20.30;48.87;97622.38;5022117;28;20029;-38
2023/05/30 09:34:03;;;;;;;9.02;3.58;;;20.30;86.70;;;20.43;49.79;97622.31;5022918;28;20075;-38
2023/05/30 09:36:29;;;;;;;7.22;3.08;;;20.50;87.50;;;20.53;50.20;97634.91;5022125;28;20025;-38
2023/05/30 09:39:01;;;;;;;4.90;2.85;;;20.60;88.30;;;20.66;49.76;97631.38;5020842;28;20052;-39
2023/05/30 09:41:28;;;;;;;;;;;20.70;87.80;;;20.75;49.97;97628.84;5021704;28;20053;-38
2023/05/30 09:43:56;;;;;;;7.15;3.10;;;20.80;87.40;;;20.80;48.90;97617.78;5024714;28;20658;-38
2023/05/30 09:46:26;;;;;;;5.78;2.75;;;20.90;87.60;;;20.95;50.20;97634.53;5022146;28;20127;-38
2023/05/30 09:48:52;;;;;;;5.68;2.92;;;21.00;89.60;;;20.98;47.54;97631.63;5023547;28;20029;-39
2023/05/30 09:51:21;;;;;;;12.80;3.55;;;21.00;85.80;;;20.87;47.94;97624.41;5021254;28;20532;-38
2023/05/30 09:54:04;;;;;;;8.20;3.30;;;20.90;85.40;;;20.93;47.54;97623.06;5016676;28;20021;-38
2023/05/30 09:56:38;;;;;;;6.93;3.08;;;20.90;85.50;;;20.89;47.82;97616.22;5026203;28;20036;-38
2023/05/30 09:59:13;;;;;;;5.18;2.83;;;21.00;85.70;;;20.99;49.08;97625.28;5022506;28;20029;-38
2023/05/30 10:01:48;;;;;;;6.32;2.90;;;21.00;86.20;;;21.07;50.19;97619.34;5023555;28;20021;-38
2023/05/30 10:04:18;;;;;;;8.60;3.05;;;21.10;87.40;;;21.16;49.76;97618.66;5026206;28;20032;-38
2023/05/30 10:06:46;;;;;;;8.73;3.60;;;21.20;88.00;;;21.20;46.82;97630.00;5021547;28;20051;-38
2023/05/30 10:09:13;;;;;;;6.60;3.88;;;21.20;85.00;;;21.08;47.76;97627.25;5021995;28;20037;-38
2023/05/30 10:11:41;;;;;;;6.60;3.03;;;21.20;83.80;;;21.07;48.75;97619.34;5023950;28;20032;-39
2023/05/30 10:14:09;;;;;;;8.43;2.92;;;21.20;86.00;;;21.18;47.93;97622.06;5022061;28;20438;-38
2023/05/30 10:16:42;;;;;;;6.85;3.08;;;21.20;85.90;;;21.29;47.11;97619.41;5023422;28;20022;-38
2023/05/30 10:19:25;;;;;;;4.20;2.90;;;21.30;84.10;;;21.23;45.62;97608.28;5022725;28;20036;-38